createdAt,value
2019-06-26T00:00:46.607Z,17.92
2019-06-26T00:05:49.702Z,17.35
2019-06-26T00:10:53.110Z,17.57
2019-06-26T00:15:56.240Z,19.42
2019-06-26T00:21:00.120Z,18.77
2019-06-26T00:26:03.344Z,19.45
2019-06-26T00:31:06.813Z,19.35
2019-06-26T00:36:10.241Z,20.70
2019-06-26T00:41:13.282Z,18.48
2019-06-26T00:46:16.911Z,19.23
2019-06-26T00:51:20.233Z,19.57
2019-06-26T00:56:23.286Z,19.60
2019-06-26T01:01:26.444Z,19.12
2019-06-26T01:06:44.538Z,19.30
2019-06-26T01:11:47.963Z,18.92
2019-06-26T01:16:50.910Z,18.45
2019-06-26T01:21:53.969Z,17.82
2019-06-26T01:26:57.517Z,17.95
2019-06-26T01:32:00.554Z,17.25
2019-06-26T01:37:04.176Z,18.10
2019-06-26T01:42:07.569Z,17.17
2019-06-26T01:47:11.001Z,18.15
2019-06-26T01:52:13.998Z,16.12
2019-06-26T01:57:17.259Z,19.00
2019-06-26T02:02:20.302Z,17.20
2019-06-26T02:07:23.346Z,17.27
2019-06-26T02:12:27.019Z,18.62
2019-06-26T02:17:30.319Z,17.45
2019-06-26T02:22:33.308Z,18.75
2019-06-26T02:27:42.121Z,17.73
2019-06-26T02:32:45.560Z,18.48
2019-06-26T02:37:48.657Z,18.85
2019-06-26T02:42:52.149Z,17.95
2019-06-26T02:47:55.532Z,18.17
2019-06-26T02:52:58.534Z,19.07
2019-06-26T02:58:01.966Z,19.20
2019-06-26T03:03:04.966Z,19.87
2019-06-26T03:08:08.047Z,19.48
2019-06-26T03:13:11.384Z,19.23
2019-06-26T03:18:14.532Z,20.27
2019-06-26T03:23:17.651Z,18.73
2019-06-26T03:28:20.726Z,19.40
2019-06-26T03:33:23.674Z,20.88
2019-06-26T03:38:26.748Z,18.85
2019-06-26T03:43:30.307Z,20.68
2019-06-26T03:48:33.496Z,19.85
2019-06-26T03:53:37.466Z,19.93
2019-06-26T03:58:40.483Z,19.42
2019-06-26T04:03:43.604Z,19.98
2019-06-26T04:08:46.663Z,19.37
2019-06-26T04:13:49.692Z,20.43
2019-06-26T04:18:52.886Z,21.63
2019-06-26T04:23:55.912Z,20.25
2019-06-26T04:28:59.193Z,20.52
2019-06-26T04:34:02.715Z,21.17
2019-06-26T04:39:07.835Z,22.35
2019-06-26T04:44:11.299Z,22.53
2019-06-26T04:49:14.315Z,20.95
2019-06-26T04:54:17.811Z,20.05
2019-06-26T04:59:21.391Z,20.77
2019-06-26T05:04:24.470Z,21.00
2019-06-26T05:09:27.733Z,20.88
2019-06-26T05:14:31.318Z,21.97
2019-06-26T05:19:34.388Z,21.65
2019-06-26T05:24:38.042Z,22.20
2019-06-26T05:29:41.188Z,22.15
2019-06-26T05:34:44.351Z,19.87
2019-06-26T05:39:47.421Z,19.48
2019-06-26T05:44:50.726Z,19.77
2019-06-26T05:49:54.215Z,18.25
2019-06-26T05:54:57.431Z,17.00
2019-06-26T06:00:00.937Z,14.93
2019-06-26T06:05:04.489Z,15.35
2019-06-26T06:10:08.482Z,14.83
2019-06-26T06:15:13.637Z,14.25
2019-06-26T06:20:27.937Z,13.95
2019-06-26T06:25:31.497Z,13.93
2019-06-26T06:30:34.584Z,14.05
2019-06-26T06:35:37.863Z,13.60
2019-06-26T06:40:41.217Z,14.58
2019-06-26T06:45:44.381Z,14.23
2019-06-26T06:50:47.693Z,14.25
2019-06-26T06:55:50.939Z,13.73
2019-06-26T07:00:54.270Z,13.62
2019-06-26T07:05:57.431Z,13.48
2019-06-26T07:11:00.773Z,15.40
2019-06-26T07:16:03.760Z,13.80
2019-06-26T07:21:06.841Z,13.43
2019-06-26T07:26:13.220Z,15.20
2019-06-26T07:31:15.072Z,13.58
2019-06-26T07:36:18.077Z,14.30
2019-06-26T07:41:21.197Z,13.43
2019-06-26T07:46:24.168Z,14.58
2019-06-26T07:51:27.305Z,12.13
2019-06-26T07:56:30.411Z,10.63
2019-06-26T08:01:33.577Z,9.95
2019-06-26T08:06:36.566Z,9.33
2019-06-26T08:11:39.816Z,9.33
2019-06-26T08:16:43.269Z,9.35
2019-06-26T08:21:46.920Z,9.58
2019-06-26T08:26:50.370Z,10.25
2019-06-26T08:31:53.929Z,11.33
2019-06-26T08:36:57.182Z,11.43
2019-06-26T08:42:00.261Z,10.10
2019-06-26T08:47:04.521Z,11.60
2019-06-26T08:52:07.687Z,9.85
2019-06-26T08:57:10.770Z,9.85
2019-06-26T09:02:13.941Z,9.83
2019-06-26T09:07:17.016Z,9.25
2019-06-26T09:12:20.166Z,9.90
2019-06-26T09:17:23.216Z,9.35
2019-06-26T09:22:26.758Z,9.38
2019-06-26T09:27:29.929Z,9.23
2019-06-26T09:32:33.032Z,9.08
2019-06-26T09:37:36.160Z,9.35
2019-06-26T09:42:39.674Z,9.65
2019-06-26T09:47:42.988Z,10.08
2019-06-26T09:52:46.114Z,9.40
2019-06-26T09:57:49.060Z,8.03
2019-06-26T10:02:52.030Z,8.50
2019-06-26T10:07:55.412Z,8.33
2019-06-26T10:12:58.684Z,8.00
2019-06-26T10:18:01.970Z,8.65
2019-06-26T10:23:05.216Z,8.08
2019-06-26T10:28:08.980Z,7.37
2019-06-26T10:33:12.076Z,7.70
2019-06-26T10:38:15.580Z,6.53
2019-06-26T10:43:18.937Z,5.62
2019-06-26T10:48:21.995Z,4.83
2019-06-26T10:53:25.649Z,5.67
2019-06-26T10:58:28.773Z,6.28
2019-06-26T11:03:31.961Z,6.20
2019-06-26T11:08:35.622Z,6.77
2019-06-26T11:13:38.669Z,6.92
2019-06-26T11:18:41.812Z,7.20
2019-06-26T11:23:44.876Z,7.40
2019-06-26T11:28:47.924Z,7.05
2019-06-26T11:33:51.089Z,6.97
2019-06-26T11:38:54.162Z,6.97
2019-06-26T11:43:57.553Z,6.20
2019-06-26T11:49:00.691Z,7.30
2019-06-26T11:54:04.086Z,7.07
2019-06-26T11:59:07.129Z,7.40
2019-06-26T12:04:10.075Z,6.23
2019-06-26T12:09:13.442Z,7.00
2019-06-26T12:14:16.527Z,5.78
2019-06-26T12:19:23.250Z,6.50
2019-06-26T12:24:26.541Z,6.40
2019-06-26T12:29:32.858Z,6.47
2019-06-26T12:34:35.460Z,6.55
2019-06-26T12:39:39.081Z,6.10
2019-06-26T12:44:42.186Z,6.12
2019-06-26T12:49:45.308Z,6.85
2019-06-26T12:54:48.265Z,6.25
2019-06-26T12:59:57.421Z,7.05
2019-06-26T13:04:57.263Z,7.35
2019-06-26T13:10:00.632Z,6.78
2019-06-26T13:15:05.204Z,7.83
2019-06-26T13:20:10.587Z,7.90
2019-06-26T13:25:15.937Z,7.60
2019-06-26T13:30:30.636Z,7.47
2019-06-26T13:35:33.945Z,6.67
2019-06-26T13:40:40.831Z,8.03
2019-06-26T13:45:42.947Z,7.03
2019-06-26T13:50:46.386Z,7.70
2019-06-26T13:55:50.091Z,7.78
2019-06-26T14:00:53.291Z,7.50
2019-06-26T14:05:56.565Z,8.18
2019-06-26T14:10:59.929Z,8.30
2019-06-26T14:16:03.095Z,7.33
2019-06-26T14:21:06.464Z,7.03
2019-06-26T14:26:09.533Z,7.87
2019-06-26T14:31:15.108Z,7.80
2019-06-26T14:36:18.402Z,8.60
2019-06-26T14:41:21.621Z,7.35
2019-06-26T14:46:25.108Z,8.08
2019-06-26T14:51:42.325Z,7.33
2019-06-26T14:56:33.835Z,8.78
2019-06-26T15:01:37.037Z,8.45
2019-06-26T15:06:40.566Z,8.05
2019-06-26T15:11:43.905Z,8.88
2019-06-26T15:16:47.444Z,8.48
2019-06-26T15:21:58.303Z,7.22
2019-06-26T15:26:55.576Z,7.85
2019-06-26T15:31:58.841Z,7.95
2019-06-26T15:37:02.240Z,7.65
2019-06-26T15:42:05.492Z,6.90
2019-06-26T15:47:08.810Z,7.67
2019-06-26T15:52:15.406Z,7.58
2019-06-26T15:57:16.599Z,7.47
2019-06-26T16:02:19.784Z,7.22
2019-06-26T16:07:23.183Z,7.42
2019-06-26T16:12:26.444Z,6.80
2019-06-26T16:17:39.931Z,7.40
2019-06-26T16:22:43.546Z,6.55
2019-06-26T16:27:47.113Z,6.75
2019-06-26T16:32:50.371Z,6.10
2019-06-26T16:37:53.381Z,5.97
2019-06-26T16:42:56.389Z,6.67
2019-06-26T16:47:59.974Z,6.28
2019-06-26T16:53:03.243Z,5.67
2019-06-26T16:58:06.387Z,6.12
2019-06-26T17:03:09.902Z,5.85
2019-06-26T17:08:13.111Z,5.80
2019-06-26T17:13:16.194Z,6.10
2019-06-26T17:18:19.866Z,6.03
2019-06-26T17:23:22.848Z,5.53
2019-06-26T17:28:26.442Z,4.90
2019-06-26T17:33:29.879Z,6.28
2019-06-26T17:38:34.196Z,6.22
2019-06-26T17:43:37.306Z,5.47
2019-06-26T17:48:40.464Z,6.42
2019-06-26T17:53:44.077Z,5.85
2019-06-26T17:58:47.116Z,5.75
2019-06-26T18:03:50.326Z,6.47
2019-06-26T18:08:53.549Z,6.22
2019-06-26T18:13:57.029Z,6.60
2019-06-26T18:19:00.291Z,6.17
2019-06-26T18:24:03.497Z,6.37
2019-06-26T18:29:06.627Z,6.15
2019-06-26T18:34:09.783Z,6.22
2019-06-26T18:39:13.159Z,6.92
2019-06-26T18:44:16.357Z,8.38
2019-06-26T18:49:19.459Z,7.53
2019-06-26T18:54:22.608Z,6.60
2019-06-26T18:59:25.698Z,7.42
2019-06-26T19:04:28.774Z,7.80
2019-06-26T19:09:31.878Z,7.30
2019-06-26T19:14:35.030Z,8.28
2019-06-26T19:19:38.253Z,9.45
2019-06-26T19:24:41.497Z,15.78
2019-06-26T19:29:44.936Z,11.20
2019-06-26T19:34:48.043Z,8.23
2019-06-26T19:39:51.130Z,9.05
2019-06-26T19:44:54.585Z,9.15
2019-06-26T19:49:57.699Z,9.53
2019-06-26T19:55:00.751Z,7.60
2019-06-26T20:00:05.215Z,8.13
2019-06-26T20:05:08.578Z,9.03
2019-06-26T20:10:14.069Z,8.73
2019-06-26T20:15:17.287Z,8.13
2019-06-26T20:20:20.375Z,8.28
2019-06-26T20:25:23.426Z,8.15
2019-06-26T20:30:31.754Z,9.00
2019-06-26T20:35:38.709Z,8.73
2019-06-26T20:40:45.491Z,9.67
2019-06-26T20:45:46.877Z,8.80
2019-06-26T20:50:50.381Z,8.80
2019-06-26T20:55:53.772Z,9.10
2019-06-26T21:00:56.820Z,8.77
2019-06-26T21:06:00.495Z,9.20
2019-06-26T21:11:03.764Z,9.28
2019-06-26T21:16:07.244Z,10.48
2019-06-26T21:21:10.402Z,9.63
2019-06-26T21:26:13.430Z,9.05
2019-06-26T21:31:16.597Z,9.60
2019-06-26T21:36:19.687Z,9.70
2019-06-26T21:41:22.943Z,8.88
2019-06-26T21:46:25.981Z,9.63
2019-06-26T21:51:29.066Z,9.55
2019-06-26T21:56:32.282Z,8.58
2019-06-26T22:01:35.674Z,8.93
2019-06-26T22:06:39.126Z,8.58
2019-06-26T22:11:42.213Z,8.67
2019-06-26T22:16:45.452Z,8.23
2019-06-26T22:21:48.462Z,8.35
2019-06-26T22:26:51.674Z,8.63
2019-06-26T22:31:55.202Z,8.53
2019-06-26T22:36:58.323Z,9.25
2019-06-26T22:42:01.296Z,9.48
2019-06-26T22:47:06.399Z,9.03
2019-06-26T22:52:09.577Z,9.15
2019-06-26T22:57:13.548Z,8.35
2019-06-26T23:02:16.774Z,8.43
2019-06-26T23:07:19.735Z,9.53
2019-06-26T23:12:22.721Z,9.35
2019-06-26T23:17:25.761Z,9.73
2019-06-26T23:22:28.928Z,9.68
2019-06-26T23:27:31.912Z,9.65
2019-06-26T23:32:34.939Z,10.10
2019-06-26T23:37:38.141Z,10.13
2019-06-26T23:42:41.338Z,10.43
2019-06-26T23:47:44.847Z,11.15
2019-06-26T23:52:47.886Z,10.55
2019-06-26T23:57:59.003Z,9.98
